createdAt,value
2022-11-30T00:01:22.564Z,-1.56
2022-11-30T00:03:53.937Z,-1.30
2022-11-30T00:06:23.531Z,-1.27
2022-11-30T00:08:55.685Z,-1.40
2022-11-30T00:11:24.763Z,-1.39
2022-11-30T00:13:52.176Z,-1.24
2022-11-30T00:16:19.515Z,-1.35
2022-11-30T00:18:46.736Z,-1.35
2022-11-30T00:21:15.767Z,-1.53
2022-11-30T00:23:46.169Z,-1.53
2022-11-30T00:26:18.133Z,-1.50
2022-11-30T00:28:46.181Z,-1.26
2022-11-30T00:31:16.660Z,-1.30
2022-11-30T00:33:44.131Z,-1.30
2022-11-30T00:36:17.837Z,-1.15
2022-11-30T00:38:46.254Z,-1.26
2022-11-30T00:41:14.020Z,-1.16
2022-11-30T00:43:41.572Z,-1.12
2022-11-30T00:46:09.969Z,-1.25
2022-11-30T00:48:41.257Z,-1.43
2022-11-30T00:51:11.212Z,-1.35
2022-11-30T00:53:39.362Z,-1.41
2022-11-30T00:56:07.946Z,-1.25
2022-11-30T00:58:35.165Z,-1.13
2022-11-30T01:01:03.274Z,-1.39
2022-11-30T01:03:30.736Z,-1.21
2022-11-30T01:06:09.580Z,-1.17
2022-11-30T01:08:36.925Z,-1.38
2022-11-30T01:11:18.008Z,-1.33
2022-11-30T01:13:45.305Z,-1.23
2022-11-30T01:16:20.281Z,-1.21
2022-11-30T01:18:48.134Z,-1.22
2022-11-30T01:21:19.565Z,-1.13
2022-11-30T01:23:47.788Z,-1.25
2022-11-30T01:26:16.184Z,-1.33
2022-11-30T01:28:44.690Z,-1.33
2022-11-30T01:31:14.785Z,-1.44
2022-11-30T01:33:43.175Z,-1.37
2022-11-30T01:36:15.619Z,-1.36
2022-11-30T01:38:52.823Z,-1.41
2022-11-30T01:41:32.543Z,-1.31
2022-11-30T01:44:05.766Z,-1.72
2022-11-30T01:46:46.404Z,-1.47
2022-11-30T01:49:23.491Z,-1.36
2022-11-30T01:52:15.181Z,-1.21
2022-11-30T01:55:03.101Z,-1.20
2022-11-30T01:57:59.729Z,-1.47
2022-11-30T02:00:27.060Z,-1.28
2022-11-30T02:03:11.453Z,-1.58
2022-11-30T02:05:40.948Z,-1.78
2022-11-30T02:08:14.052Z,-1.78
2022-11-30T02:10:51.934Z,-1.55
2022-11-30T02:14:01.820Z,-1.65
2022-11-30T02:17:21.032Z,-1.79
2022-11-30T02:20:46.307Z,-1.61
2022-11-30T02:23:40.977Z,-1.27
2022-11-30T02:26:14.870Z,-1.21
2022-11-30T02:29:18.014Z,-1.23
2022-11-30T02:32:21.238Z,-1.44
2022-11-30T02:34:50.370Z,-1.34
2022-11-30T02:37:19.680Z,-1.52
2022-11-30T02:39:46.910Z,-1.40
2022-11-30T02:42:16.265Z,-1.39
2022-11-30T02:44:50.673Z,-1.21
2022-11-30T02:47:24.567Z,-1.14
2022-11-30T02:50:27.957Z,-1.27
2022-11-30T02:52:56.057Z,-1.11
2022-11-30T02:55:23.824Z,-1.23
2022-11-30T02:57:50.988Z,-1.35
2022-11-30T03:00:19.085Z,-1.37
2022-11-30T03:02:46.371Z,-1.39
2022-11-30T03:05:13.655Z,-1.37
2022-11-30T03:07:40.887Z,-1.32
2022-11-30T03:10:09.335Z,-1.23
2022-11-30T03:12:36.982Z,-1.17
2022-11-30T03:15:06.004Z,-1.14
2022-11-30T03:17:33.400Z,-1.35
2022-11-30T03:20:00.730Z,-1.26
2022-11-30T03:22:27.934Z,-1.26
2022-11-30T03:24:55.161Z,-1.40
2022-11-30T03:27:22.979Z,-1.35
2022-11-30T03:29:50.224Z,-1.47
2022-11-30T03:32:18.475Z,-1.47
2022-11-30T03:34:46.039Z,-1.49
2022-11-30T03:37:13.587Z,-1.29
2022-11-30T03:39:40.803Z,-1.36
2022-11-30T03:42:08.077Z,-1.43
2022-11-30T03:44:35.853Z,-1.35
2022-11-30T03:47:03.061Z,-1.27
2022-11-30T03:49:30.286Z,-1.25
2022-11-30T03:51:57.484Z,-1.16
2022-11-30T03:54:24.662Z,-1.28
2022-11-30T03:56:51.855Z,-1.35
2022-11-30T03:59:18.954Z,-1.37
2022-11-30T04:01:46.195Z,-1.47
2022-11-30T04:04:13.670Z,-1.48
2022-11-30T04:06:40.816Z,-1.64
2022-11-30T04:09:09.955Z,-1.70
2022-11-30T04:11:37.286Z,-1.56
2022-11-30T04:14:04.506Z,-1.43
2022-11-30T04:16:31.852Z,-1.43
2022-11-30T04:18:59.372Z,-1.64
2022-11-30T04:21:26.850Z,-1.66
2022-11-30T04:23:54.039Z,-1.44
2022-11-30T04:26:21.292Z,-1.44
2022-11-30T04:28:48.582Z,-1.39
2022-11-30T04:31:17.014Z,-1.50
2022-11-30T04:33:44.338Z,-1.45
2022-11-30T04:36:20.312Z,-1.32
2022-11-30T04:38:49.482Z,-1.44
2022-11-30T04:41:16.787Z,-1.51
2022-11-30T04:43:43.931Z,-1.34
2022-11-30T04:46:11.530Z,-1.59
2022-11-30T04:48:38.998Z,-1.79
2022-11-30T04:51:08.503Z,-1.67
2022-11-30T04:53:37.533Z,-1.68
2022-11-30T04:56:10.037Z,-1.70
2022-11-30T04:58:38.827Z,-1.62
2022-11-30T05:01:07.256Z,-1.85
2022-11-30T05:03:35.277Z,-1.61
2022-11-30T05:06:03.470Z,-1.53
2022-11-30T05:08:30.808Z,-1.48
2022-11-30T05:10:58.760Z,-1.43
2022-11-30T05:13:26.490Z,-1.50
2022-11-30T05:15:54.172Z,-1.60
2022-11-30T05:18:21.983Z,-1.49
2022-11-30T05:20:51.507Z,-1.32
2022-11-30T05:23:19.879Z,-1.34
2022-11-30T05:25:47.536Z,-1.54
2022-11-30T05:28:15.221Z,-1.66
2022-11-30T05:30:43.569Z,-1.87
2022-11-30T05:33:11.289Z,-1.83
2022-11-30T05:35:38.916Z,-1.66
2022-11-30T05:38:06.138Z,-1.74
2022-11-30T05:40:33.791Z,-1.70
2022-11-30T05:43:03.068Z,-1.61
2022-11-30T05:45:31.094Z,-1.60
2022-11-30T05:47:58.453Z,-1.62
2022-11-30T05:50:25.770Z,-1.51
2022-11-30T05:52:58.208Z,-1.37
2022-11-30T05:55:25.786Z,-1.35
2022-11-30T05:57:53.573Z,-1.46
2022-11-30T06:00:22.088Z,-1.75
2022-11-30T06:02:49.893Z,-1.63
2022-11-30T06:05:17.473Z,-1.53
2022-11-30T06:07:44.949Z,-1.60
2022-11-30T06:10:12.708Z,-1.64
2022-11-30T06:12:40.046Z,-1.64
2022-11-30T06:15:08.897Z,-1.77
2022-11-30T06:17:38.007Z,-1.76
2022-11-30T06:20:07.001Z,-1.70
2022-11-30T06:22:34.492Z,-1.57
2022-11-30T06:25:01.824Z,-1.62
2022-11-30T06:27:32.484Z,-1.54
2022-11-30T06:29:59.895Z,-1.48
2022-11-30T06:32:27.067Z,-1.40
2022-11-30T06:34:54.269Z,-1.49
2022-11-30T06:37:21.514Z,-1.45
2022-11-30T06:42:37.419Z,-1.83
2022-11-30T06:45:07.081Z,-1.62
2022-11-30T06:47:34.322Z,-1.43
2022-11-30T06:50:01.530Z,-1.56
2022-11-30T06:52:32.155Z,-1.61
2022-11-30T06:54:59.595Z,-1.65
2022-11-30T06:57:28.967Z,-1.62
2022-11-30T06:59:57.113Z,-1.46
2022-11-30T07:02:24.810Z,-1.46
2022-11-30T07:04:52.059Z,-1.57
2022-11-30T07:07:19.383Z,-1.32
2022-11-30T07:09:46.854Z,-1.11
2022-11-30T07:12:14.103Z,-1.20
2022-11-30T07:14:41.508Z,-1.24
2022-11-30T07:17:08.664Z,-1.22
2022-11-30T07:19:35.858Z,-1.17
2022-11-30T07:22:03.402Z,-1.34
2022-11-30T07:24:49.652Z,-1.14
2022-11-30T07:27:17.061Z,-1.31
2022-11-30T07:29:44.283Z,-1.17
2022-11-30T07:32:11.488Z,-0.97
2022-11-30T07:34:38.715Z,-0.97
2022-11-30T07:37:06.180Z,-0.94
2022-11-30T07:39:33.446Z,-1.12
2022-11-30T07:42:00.720Z,-1.15
2022-11-30T07:44:28.070Z,-1.24
2022-11-30T07:46:55.286Z,-1.01
2022-11-30T07:49:22.620Z,-1.02
2022-11-30T07:51:49.905Z,-0.98
2022-11-30T07:54:17.112Z,-0.76
2022-11-30T07:56:44.472Z,-0.99
2022-11-30T07:59:11.707Z,-1.30
2022-11-30T08:01:38.981Z,-1.19
2022-11-30T08:04:06.424Z,-1.34
2022-11-30T08:06:33.772Z,-1.51
2022-11-30T08:09:04.397Z,-1.42
2022-11-30T08:11:36.422Z,-1.18
2022-11-30T08:14:04.652Z,-1.16
2022-11-30T08:16:38.293Z,-1.23
2022-11-30T08:19:05.595Z,-1.16
2022-11-30T08:21:32.933Z,-1.16
2022-11-30T08:24:00.434Z,-0.78
2022-11-30T08:26:33.885Z,-0.90
2022-11-30T08:29:02.277Z,-0.94
2022-11-30T08:31:36.154Z,-0.95
2022-11-30T08:34:11.336Z,-0.97
2022-11-30T08:36:40.093Z,-0.98
2022-11-30T08:39:09.178Z,-0.72
2022-11-30T08:41:36.660Z,-0.48
2022-11-30T08:44:03.927Z,-0.39
2022-11-30T08:47:01.964Z,-0.30
2022-11-30T08:49:23.002Z,-0.22
2022-11-30T08:54:45.367Z,-0.04
2022-11-30T08:57:12.835Z,-0.15
2022-11-30T08:59:40.026Z,-0.20
2022-11-30T09:02:10.514Z,-0.01
2022-11-30T09:04:37.733Z,-0.07
2022-11-30T09:07:05.331Z,-0.11
2022-11-30T09:09:32.751Z,-0.08
2022-11-30T09:11:59.919Z,0.14
2022-11-30T09:14:27.197Z,0.04
2022-11-30T09:16:56.101Z,0.13
2022-11-30T09:19:23.460Z,0.04
2022-11-30T09:21:52.177Z,0.18
2022-11-30T09:24:21.031Z,0.23
2022-11-30T09:26:48.760Z,-0.05
2022-11-30T09:29:16.084Z,-0.08
2022-11-30T09:31:43.442Z,0.07
2022-11-30T09:34:12.411Z,0.08
2022-11-30T09:36:39.702Z,-0.13
2022-11-30T09:39:09.401Z,-0.32
2022-11-30T09:42:10.093Z,-0.51
2022-11-30T09:44:40.272Z,-0.29
2022-11-30T09:48:03.166Z,-0.34
2022-11-30T09:50:38.315Z,-0.32
2022-11-30T09:53:29.501Z,-0.12
2022-11-30T09:55:59.005Z,-0.33
2022-11-30T09:58:52.156Z,-0.11
2022-11-30T10:01:21.871Z,-0.02
2022-11-30T10:03:49.545Z,0.10
2022-11-30T10:06:49.186Z,-0.12
2022-11-30T10:09:53.201Z,0.22
2022-11-30T10:13:00.850Z,0.38
2022-11-30T10:16:01.424Z,0.44
2022-11-30T10:19:02.686Z,0.38
2022-11-30T10:22:09.085Z,0.29
2022-11-30T10:24:54.957Z,0.30
2022-11-30T10:27:54.627Z,0.32
2022-11-30T10:30:25.384Z,0.29
2022-11-30T10:32:57.491Z,0.34
2022-11-30T10:35:49.448Z,0.11
2022-11-30T10:38:21.359Z,0.24
2022-11-30T10:41:03.401Z,0.07
2022-11-30T10:43:45.625Z,0.33
2022-11-30T10:46:24.691Z,0.50
2022-11-30T10:49:06.734Z,0.35
2022-11-30T10:51:37.774Z,0.43
2022-11-30T10:54:16.473Z,0.38
2022-11-30T10:56:43.934Z,0.28
2022-11-30T10:59:26.329Z,0.42
2022-11-30T11:01:53.865Z,0.35
2022-11-30T11:04:27.420Z,0.43
2022-11-30T11:07:13.750Z,0.38
2022-11-30T11:09:50.753Z,0.33
2022-11-30T11:12:30.998Z,0.27
2022-11-30T11:15:24.822Z,0.28
2022-11-30T11:17:54.044Z,0.43
2022-11-30T11:20:44.448Z,0.39
2022-11-30T11:23:41.126Z,0.28
2022-11-30T11:26:27.846Z,0.40
2022-11-30T11:28:59.577Z,0.43
2022-11-30T11:31:46.370Z,0.34
2022-11-30T11:34:31.750Z,0.36
2022-11-30T11:37:19.643Z,0.51
2022-11-30T11:40:08.839Z,0.44
2022-11-30T11:42:49.279Z,-0.20
2022-11-30T11:45:35.007Z,0.08
2022-11-30T11:48:08.269Z,0.24
2022-11-30T11:51:05.630Z,0.17
2022-11-30T11:53:52.998Z,0.28
2022-11-30T11:56:36.888Z,0.28
2022-11-30T11:59:10.057Z,0.37
2022-11-30T12:02:03.689Z,0.55
2022-11-30T12:04:45.776Z,0.47
2022-11-30T12:07:34.937Z,0.49
2022-11-30T12:13:24.923Z,0.35
2022-11-30T12:16:29.348Z,0.53
2022-11-30T12:19:27.667Z,0.43
2022-11-30T12:22:51.605Z,0.24
2022-11-30T12:25:31.105Z,0.34
2022-11-30T12:28:31.881Z,0.31
2022-11-30T12:31:12.244Z,0.24
2022-11-30T12:33:48.132Z,0.37
2022-11-30T12:36:28.784Z,0.38
2022-11-30T12:39:10.249Z,0.37
2022-11-30T12:42:20.414Z,0.27
2022-11-30T12:45:22.115Z,0.35
2022-11-30T12:48:18.351Z,0.33
2022-11-30T12:51:29.831Z,0.44
2022-11-30T12:54:53.489Z,0.04
2022-11-30T12:58:00.791Z,0.30
2022-11-30T13:00:50.067Z,0.31
2022-11-30T13:03:45.371Z,0.35
2022-11-30T13:06:23.308Z,0.19
2022-11-30T13:09:21.454Z,0.23
2022-11-30T13:11:56.474Z,0.22
2022-11-30T13:14:27.352Z,0.30
2022-11-30T13:17:08.050Z,0.15
2022-11-30T13:19:50.616Z,0.01
2022-11-30T13:22:48.338Z,0.03
2022-11-30T13:26:23.846Z,-0.18
2022-11-30T13:29:07.854Z,-0.10
2022-11-30T13:32:17.710Z,-0.19
2022-11-30T13:35:15.124Z,-0.18
2022-11-30T13:37:42.426Z,-0.17
2022-11-30T13:40:22.536Z,-0.41
2022-11-30T13:42:56.025Z,-0.33
2022-11-30T13:45:41.501Z,-0.45
2022-11-30T13:48:43.519Z,-0.62
2022-11-30T13:51:11.849Z,-0.62
2022-11-30T13:53:41.081Z,-0.63
2022-11-30T13:56:33.912Z,-0.71
2022-11-30T13:59:23.511Z,-0.56
2022-11-30T14:02:42.122Z,-0.88
2022-11-30T14:05:18.185Z,-0.69
2022-11-30T14:08:10.358Z,-0.36
2022-11-30T14:10:46.558Z,-0.28
2022-11-30T14:13:14.319Z,-0.25
2022-11-30T14:15:44.300Z,-0.28
2022-11-30T14:18:19.926Z,-0.20
2022-11-30T14:21:00.992Z,-0.42
2022-11-30T14:23:47.102Z,-0.35
2022-11-30T14:26:20.823Z,-0.29
2022-11-30T14:29:08.575Z,-0.44
2022-11-30T14:32:00.146Z,-0.47
2022-11-30T14:34:46.143Z,-0.71
2022-11-30T14:37:33.255Z,-0.93
2022-11-30T14:40:07.925Z,-0.92
2022-11-30T14:42:36.171Z,-1.18
2022-11-30T14:45:04.223Z,-1.32
2022-11-30T14:47:36.201Z,-1.16
2022-11-30T14:50:06.293Z,-1.34
2022-11-30T14:52:52.867Z,-1.11
2022-11-30T14:55:33.864Z,-1.29
2022-11-30T14:58:07.057Z,-1.06
2022-11-30T15:00:42.574Z,-0.91
2022-11-30T15:03:38.949Z,-0.95
2022-11-30T15:06:08.232Z,-1.09
2022-11-30T15:09:04.394Z,-1.18
2022-11-30T15:11:31.935Z,-1.34
2022-11-30T15:14:10.735Z,-1.41
2022-11-30T15:16:46.301Z,-1.20
2022-11-30T15:19:34.734Z,-1.29
2022-11-30T15:22:02.136Z,-1.40
2022-11-30T15:24:29.969Z,-1.21
2022-11-30T15:27:10.693Z,-1.14
2022-11-30T15:29:47.321Z,-1.21
2022-11-30T15:32:23.284Z,-1.17
2022-11-30T15:34:57.702Z,-1.16
2022-11-30T15:37:41.227Z,-1.08
2022-11-30T15:40:10.952Z,-0.90
2022-11-30T15:42:40.552Z,-0.70
2022-11-30T15:45:25.548Z,-0.64
2022-11-30T15:47:54.782Z,-0.61
2022-11-30T15:50:31.146Z,-0.65
2022-11-30T15:53:22.953Z,-0.73
2022-11-30T15:56:15.764Z,-0.87
2022-11-30T15:58:59.693Z,-0.93
2022-11-30T16:01:28.213Z,-0.99
2022-11-30T16:03:55.380Z,-1.01
2022-11-30T16:06:26.476Z,-1.15
2022-11-30T16:08:54.914Z,-1.04
2022-11-30T16:11:22.641Z,-0.99
2022-11-30T16:13:49.998Z,-0.87
2022-11-30T16:16:37.616Z,-0.78
2022-11-30T16:19:04.993Z,-0.85
2022-11-30T16:21:32.364Z,-0.71
2022-11-30T16:23:59.668Z,-0.76
2022-11-30T16:26:49.920Z,-1.03
2022-11-30T16:29:14.352Z,-0.75
2022-11-30T16:31:41.673Z,-0.71
2022-11-30T16:34:11.962Z,-0.90
2022-11-30T16:36:39.378Z,-0.87
2022-11-30T16:39:06.767Z,-0.69
2022-11-30T16:41:36.083Z,-0.76
2022-11-30T16:44:08.745Z,-0.74
2022-11-30T16:46:37.065Z,-0.96
2022-11-30T16:49:04.280Z,-1.04
2022-11-30T16:51:34.852Z,-1.06
2022-11-30T16:54:02.306Z,-1.24
2022-11-30T16:56:29.706Z,-1.07
2022-11-30T16:58:56.988Z,-1.02
2022-11-30T17:01:38.635Z,-0.94
2022-11-30T17:04:26.564Z,-0.85
2022-11-30T17:07:00.432Z,-1.11
2022-11-30T17:09:30.484Z,-0.88
2022-11-30T17:11:58.080Z,-1.10
2022-11-30T17:14:25.399Z,-1.24
2022-11-30T17:16:52.831Z,-1.12
2022-11-30T17:19:20.165Z,-1.10
2022-11-30T17:21:48.536Z,-1.53
2022-11-30T17:24:16.322Z,-1.51
2022-11-30T17:26:43.777Z,-1.45
2022-11-30T17:29:11.086Z,-1.51
2022-11-30T17:31:38.420Z,-1.49
2022-11-30T17:34:08.598Z,-1.51
2022-11-30T17:36:35.978Z,-1.41
2022-11-30T17:39:08.377Z,-1.46
2022-11-30T17:41:35.750Z,-1.48
2022-11-30T17:44:03.364Z,-1.16
2022-11-30T17:46:30.887Z,-1.34
2022-11-30T17:48:58.241Z,-1.51
2022-11-30T17:51:25.618Z,-1.63
2022-11-30T17:53:52.938Z,-1.28
2022-11-30T17:56:20.344Z,-1.32
2022-11-30T17:58:49.358Z,-1.30
2022-11-30T18:01:22.270Z,-1.16
2022-11-30T18:03:50.411Z,-1.38
2022-11-30T18:06:18.710Z,-1.37
2022-11-30T18:08:46.418Z,-1.42
2022-11-30T18:11:20.925Z,-1.29
2022-11-30T18:13:51.708Z,-1.25
2022-11-30T18:16:25.920Z,-1.29
2022-11-30T18:18:54.103Z,-1.22
2022-11-30T18:21:23.691Z,-1.02
2022-11-30T18:23:53.247Z,-1.09
2022-11-30T18:26:24.160Z,-1.27
2022-11-30T18:28:56.791Z,-1.16
2022-11-30T18:31:25.051Z,-1.15
2022-11-30T18:34:01.681Z,-0.93
2022-11-30T18:36:29.389Z,-0.82
2022-11-30T18:38:57.213Z,-0.96
2022-11-30T18:41:26.895Z,-1.12
2022-11-30T18:43:54.871Z,-1.21
2022-11-30T18:46:22.603Z,-1.15
2022-11-30T18:48:51.738Z,-1.15
2022-11-30T18:51:25.905Z,-1.29
2022-11-30T18:54:04.819Z,-1.20
2022-11-30T18:56:36.009Z,-1.19
2022-11-30T18:59:07.837Z,-1.08
2022-11-30T19:01:36.216Z,-0.89
2022-11-30T19:04:10.368Z,-1.24
2022-11-30T19:06:39.954Z,-1.27
2022-11-30T19:09:13.347Z,-1.26
2022-11-30T19:11:42.713Z,-1.24
2022-11-30T19:14:14.028Z,-1.04
2022-11-30T19:16:42.082Z,-0.93
2022-11-30T19:19:14.177Z,-0.98
2022-11-30T19:21:45.273Z,-1.04
2022-11-30T19:24:12.655Z,-1.13
2022-11-30T19:26:40.438Z,-1.10
2022-11-30T19:29:08.421Z,-1.27
2022-11-30T19:31:35.782Z,-1.33
2022-11-30T19:34:09.081Z,-1.08
2022-11-30T19:36:39.755Z,-1.03
2022-11-30T19:39:07.116Z,-0.91
2022-11-30T19:41:34.731Z,-0.99
2022-11-30T19:44:03.914Z,-1.09
2022-11-30T19:46:33.424Z,-1.20
2022-11-30T19:49:02.186Z,-1.03
2022-11-30T19:51:31.363Z,-1.10
2022-11-30T19:54:01.821Z,-0.92
2022-11-30T19:56:34.287Z,-1.02
2022-11-30T19:59:05.604Z,-1.20
2022-11-30T20:01:34.508Z,-1.02
2022-11-30T20:04:02.472Z,-0.91
2022-11-30T20:06:37.044Z,-0.99
2022-11-30T20:09:06.492Z,-1.07
2022-11-30T20:11:34.358Z,-0.99
2022-11-30T20:14:01.928Z,-0.86
2022-11-30T20:16:29.536Z,-0.82
2022-11-30T20:19:03.229Z,-0.78
2022-11-30T20:21:34.139Z,-0.74
2022-11-30T20:24:07.461Z,-0.80
2022-11-30T20:26:39.801Z,-0.73
2022-11-30T20:29:13.058Z,-0.66
2022-11-30T20:31:41.255Z,-0.58
2022-11-30T20:34:09.205Z,-0.58
2022-11-30T20:36:37.574Z,-0.65
2022-11-30T20:39:06.655Z,-0.64
2022-11-30T20:41:34.217Z,-0.70
2022-11-30T20:44:01.876Z,-0.71
2022-11-30T20:46:33.183Z,-0.73
2022-11-30T20:49:02.706Z,-0.94
2022-11-30T20:51:33.475Z,-0.79
2022-11-30T20:54:08.793Z,-0.87
2022-11-30T20:56:37.507Z,-0.80
2022-11-30T20:59:19.520Z,-0.62
2022-11-30T21:01:47.372Z,-0.67
2022-11-30T21:04:14.725Z,-0.59
2022-11-30T21:06:45.615Z,-0.60
2022-11-30T21:09:15.206Z,-0.71
2022-11-30T21:11:43.353Z,-0.71
2022-11-30T21:14:10.907Z,-0.77
2022-11-30T21:16:38.488Z,-0.85
2022-11-30T21:19:06.269Z,-0.99
2022-11-30T21:21:35.757Z,-0.76
2022-11-30T21:24:07.716Z,-0.73
2022-11-30T21:26:41.512Z,-0.76
2022-11-30T21:29:14.170Z,-0.78
2022-11-30T21:31:42.645Z,-0.70
2022-11-30T21:34:10.215Z,-0.56
2022-11-30T21:36:37.694Z,-0.74
2022-11-30T21:39:09.325Z,-0.61
2022-11-30T21:41:39.221Z,-0.49
2022-11-30T21:44:10.803Z,-0.50
2022-11-30T21:46:38.827Z,-0.68
2022-11-30T21:49:07.071Z,-0.57
2022-11-30T21:51:34.504Z,-0.65
2022-11-30T21:54:05.904Z,-0.67
2022-11-30T21:56:38.739Z,-0.58
2022-11-30T21:59:08.734Z,-0.55
2022-11-30T22:01:40.024Z,-0.65
2022-11-30T22:04:09.777Z,-0.78
2022-11-30T22:06:39.892Z,-0.82
2022-11-30T22:09:16.553Z,-0.75
2022-11-30T22:11:45.759Z,-0.72
2022-11-30T22:14:16.486Z,-0.96
2022-11-30T22:16:44.251Z,-0.84
2022-11-30T22:19:11.970Z,-0.93
2022-11-30T22:21:40.772Z,-0.77
2022-11-30T22:24:12.981Z,-0.94
2022-11-30T22:26:41.451Z,-0.80
2022-11-30T22:29:22.498Z,-0.77
2022-11-30T22:31:52.261Z,-0.80
2022-11-30T22:34:20.557Z,-0.73
2022-11-30T22:36:48.492Z,-0.75
2022-11-30T22:39:22.520Z,-0.85
2022-11-30T22:41:55.108Z,-0.86
2022-11-30T22:44:24.657Z,-0.91
2022-11-30T22:46:52.115Z,-0.73
2022-11-30T22:49:21.538Z,-0.99
2022-11-30T22:51:50.024Z,-1.04
2022-11-30T22:54:18.008Z,-1.03
2022-11-30T22:56:46.746Z,-0.98
2022-11-30T22:59:15.680Z,-0.99
2022-11-30T23:01:46.786Z,-1.00
2022-11-30T23:04:20.156Z,-0.99
2022-11-30T23:06:49.336Z,-0.95
2022-11-30T23:09:20.423Z,-0.93
2022-11-30T23:11:48.233Z,-0.86
2022-11-30T23:14:16.642Z,-0.81
2022-11-30T23:16:45.488Z,-0.80
2022-11-30T23:19:13.999Z,-0.90
2022-11-30T23:21:44.963Z,-1.05
2022-11-30T23:24:20.835Z,-0.91
2022-11-30T23:26:48.733Z,-1.11
2022-11-30T23:29:17.731Z,-1.01
2022-11-30T23:31:46.792Z,-1.11
2022-11-30T23:34:22.325Z,-1.16
2022-11-30T23:36:50.797Z,-1.11
2022-11-30T23:39:20.229Z,-1.17
2022-11-30T23:41:48.442Z,-1.16
2022-11-30T23:44:15.900Z,-0.96
2022-11-30T23:46:43.336Z,-0.89
2022-11-30T23:49:14.293Z,-0.81
2022-11-30T23:51:42.581Z,-0.84
2022-11-30T23:54:09.970Z,-0.89
2022-11-30T23:56:37.221Z,-0.81
2022-11-30T23:59:04.406Z,-0.75
